LST weather

Launceston Airport
Launceston, Tasmania, Australia

Public forecast

Using degrees Celsius for public forecast. Weather courtesy of forecast.io.

METAR (pilot weather report)

Retrieved 2017/09/22 01:30 UTC (23 minutes ago):

YMLT 220130Z AUTO 34013KT 9999 // SCT030 15/05 Q1008 RF00.0/000.0

TAF (pilot weather forecast)

Forecast is more than 6 hours old.

Retrieved 2017/09/21 18:36 UTC (7 hours ago):

TAF YMLT 211718Z 2118/2218 34005KT 9999 BKN005 FM220000 34012KT 9999 FEW040 PROB30 2118/2123 0500 FG